createdAt,value
2023-04-27T00:01:13.370Z,55.52
2023-04-27T00:03:41.441Z,55.72
2023-04-27T00:06:09.252Z,55.78
2023-04-27T00:08:36.070Z,55.60
2023-04-27T00:11:02.879Z,55.75
2023-04-27T00:13:29.571Z,55.88
2023-04-27T00:15:56.238Z,55.77
2023-04-27T00:18:22.975Z,55.83
2023-04-27T00:20:50.043Z,55.93
2023-04-27T00:23:16.846Z,55.84
2023-04-27T00:25:43.475Z,56.05
2023-04-27T00:28:10.117Z,56.21
2023-04-27T00:30:36.890Z,56.37
2023-04-27T00:33:03.648Z,56.81
2023-04-27T00:35:30.561Z,56.31
2023-04-27T00:37:57.193Z,56.60
2023-04-27T00:40:23.854Z,56.58
2023-04-27T00:42:50.454Z,56.72
2023-04-27T00:45:17.227Z,56.69
2023-04-27T00:47:44.894Z,56.61
2023-04-27T00:50:12.226Z,56.71
2023-04-27T00:52:39.856Z,56.78
2023-04-27T00:55:07.299Z,56.61
2023-04-27T00:57:34.326Z,56.80
2023-04-27T01:00:02.267Z,56.71
2023-04-27T01:02:30.149Z,56.99
2023-04-27T01:04:57.237Z,56.81
2023-04-27T01:07:27.269Z,57.16
2023-04-27T01:09:54.074Z,56.87
2023-04-27T01:12:21.080Z,56.81
2023-04-27T01:14:47.713Z,57.03
2023-04-27T01:17:14.398Z,57.21
2023-04-27T01:19:41.277Z,57.12
2023-04-27T01:22:08.071Z,57.29
2023-04-27T01:24:34.721Z,57.58
2023-04-27T01:27:02.661Z,57.26
2023-04-27T01:29:29.385Z,57.56
2023-04-27T01:31:56.310Z,57.64
2023-04-27T01:34:22.997Z,57.69
2023-04-27T01:36:49.674Z,58.08
2023-04-27T01:39:16.611Z,58.04
2023-04-27T01:41:43.240Z,58.15
2023-04-27T01:44:09.884Z,58.16
2023-04-27T01:46:36.533Z,58.27
2023-04-27T01:49:03.623Z,58.24
2023-04-27T01:51:30.980Z,58.31
2023-04-27T01:53:57.647Z,58.58
2023-04-27T01:56:24.573Z,58.31
2023-04-27T01:58:53.110Z,58.75
2023-04-27T02:01:19.794Z,58.54
2023-04-27T02:03:46.760Z,58.69
2023-04-27T02:06:13.723Z,58.67
2023-04-27T02:08:40.359Z,58.74
2023-04-27T02:11:07.001Z,58.99
2023-04-27T02:13:33.634Z,59.16
2023-04-27T02:16:02.227Z,59.03
2023-04-27T02:18:29.008Z,59.25
2023-04-27T02:20:56.114Z,59.33
2023-04-27T02:23:22.708Z,59.14
2023-04-27T02:25:49.353Z,59.35
2023-04-27T02:28:16.254Z,59.09
2023-04-27T02:30:43.251Z,59.54
2023-04-27T02:33:10.068Z,59.46
2023-04-27T02:35:36.814Z,59.72
2023-04-27T02:38:03.437Z,59.61
2023-04-27T02:40:30.045Z,59.68
2023-04-27T02:42:56.695Z,59.73
2023-04-27T02:45:23.357Z,59.84
2023-04-27T02:47:51.067Z,60.00
2023-04-27T02:50:17.877Z,59.87
2023-04-27T02:52:44.490Z,59.95
2023-04-27T02:55:11.566Z,59.99
2023-04-27T02:57:38.284Z,60.02
2023-04-27T03:00:07.581Z,60.30
2023-04-27T03:02:34.363Z,60.28
2023-04-27T03:05:01.564Z,60.11
2023-04-27T03:07:28.185Z,60.22
2023-04-27T03:09:54.794Z,60.14
2023-04-27T03:12:21.413Z,60.50
2023-04-27T03:14:48.017Z,60.08
2023-04-27T03:17:14.626Z,60.77
2023-04-27T03:19:41.303Z,60.62
2023-04-27T03:22:07.925Z,60.60
2023-04-27T03:24:34.998Z,60.81
2023-04-27T03:27:03.442Z,60.93
2023-04-27T03:29:30.181Z,60.80
2023-04-27T03:31:57.531Z,60.72
2023-04-27T03:34:24.507Z,60.95
2023-04-27T03:36:51.249Z,60.80
2023-04-27T03:39:17.881Z,60.98
2023-04-27T03:41:44.546Z,61.09
2023-04-27T03:44:11.160Z,61.20
2023-04-27T03:46:37.775Z,61.11
2023-04-27T03:49:04.465Z,61.23
2023-04-27T03:51:34.620Z,61.17
2023-04-27T03:54:01.468Z,61.52
2023-04-27T03:56:28.114Z,61.08
2023-04-27T03:58:54.761Z,61.27
2023-04-27T04:01:22.014Z,61.07
2023-04-27T04:03:48.955Z,61.28
2023-04-27T04:06:15.806Z,61.16
2023-04-27T04:08:42.617Z,61.07
2023-04-27T04:11:09.254Z,61.41
2023-04-27T04:13:36.592Z,61.52
2023-04-27T04:16:08.729Z,61.32
2023-04-27T04:18:36.641Z,61.27
2023-04-27T04:21:03.799Z,61.20
2023-04-27T04:23:30.540Z,61.25
2023-04-27T04:25:57.754Z,61.50
2023-04-27T04:28:25.216Z,61.35
2023-04-27T04:30:52.421Z,61.33
2023-04-27T04:33:19.554Z,61.41
2023-04-27T04:35:47.083Z,61.46
2023-04-27T04:38:14.183Z,61.31
2023-04-27T04:40:44.524Z,61.58
2023-04-27T04:43:13.548Z,61.59
2023-04-27T04:45:40.278Z,61.51
2023-04-27T04:48:06.956Z,61.86
2023-04-27T04:50:33.674Z,61.57
2023-04-27T04:53:00.312Z,61.81
2023-04-27T04:55:28.410Z,61.81
2023-04-27T04:57:55.109Z,61.71
2023-04-27T05:00:22.512Z,61.73
2023-04-27T05:02:49.579Z,61.72
2023-04-27T05:05:16.730Z,61.80
2023-04-27T05:07:43.451Z,61.74
2023-04-27T05:10:10.319Z,61.73
2023-04-27T05:12:37.073Z,61.70
2023-04-27T05:15:05.386Z,61.75
2023-04-27T05:17:32.186Z,61.77
2023-04-27T05:19:59.226Z,61.84
2023-04-27T05:22:25.956Z,61.57
2023-04-27T05:24:52.598Z,61.58
2023-04-27T05:27:19.253Z,61.77
2023-04-27T05:29:45.851Z,61.44
2023-04-27T05:32:12.542Z,61.94
2023-04-27T05:34:39.256Z,61.76
2023-04-27T05:37:05.889Z,61.58
2023-04-27T05:39:32.944Z,61.57
2023-04-27T05:41:59.576Z,61.27
2023-04-27T05:44:28.559Z,61.26
2023-04-27T05:46:56.342Z,61.53
2023-04-27T05:49:23.507Z,61.35
2023-04-27T05:51:50.323Z,61.23
2023-04-27T05:54:16.979Z,61.38
2023-04-27T05:56:43.671Z,61.30
2023-04-27T05:59:10.672Z,61.33
2023-04-27T06:01:37.323Z,61.16
2023-04-27T06:04:04.296Z,60.95
2023-04-27T06:06:32.976Z,60.83
2023-04-27T06:08:59.699Z,61.06
2023-04-27T06:11:26.865Z,61.31
2023-04-27T06:13:53.500Z,60.81
2023-04-27T06:16:21.164Z,60.90
2023-04-27T06:18:50.108Z,60.62
2023-04-27T06:21:17.529Z,60.75
2023-04-27T06:23:44.223Z,60.29
2023-04-27T06:26:11.500Z,60.55
2023-04-27T06:28:38.486Z,59.87
2023-04-27T06:31:06.289Z,60.17
2023-04-27T06:33:33.579Z,60.15
2023-04-27T06:36:01.304Z,59.90
2023-04-27T06:38:28.334Z,60.12
2023-04-27T06:40:55.088Z,59.76
2023-04-27T06:43:21.926Z,59.52
2023-04-27T06:45:48.671Z,59.25
2023-04-27T06:48:15.525Z,59.14
2023-04-27T06:50:42.202Z,58.46
2023-04-27T06:53:09.089Z,58.85
2023-04-27T06:55:36.135Z,58.86
2023-04-27T06:58:03.535Z,58.89
2023-04-27T07:00:30.938Z,58.39
2023-04-27T07:02:57.762Z,58.08
2023-04-27T07:05:24.473Z,57.79
2023-04-27T07:07:51.213Z,57.79
2023-04-27T07:10:17.970Z,57.95
2023-04-27T07:12:44.681Z,57.60
2023-04-27T07:15:11.490Z,57.65
2023-04-27T07:17:38.371Z,58.06
2023-04-27T07:20:06.466Z,57.29
2023-04-27T07:22:33.570Z,57.33
2023-04-27T07:25:00.262Z,56.57
2023-04-27T07:27:27.508Z,57.04
2023-04-27T07:29:54.748Z,56.79
2023-04-27T07:32:22.095Z,56.21
2023-04-27T07:34:53.653Z,55.96
2023-04-27T07:37:21.435Z,56.50
2023-04-27T07:39:50.458Z,56.57
2023-04-27T07:42:17.185Z,55.70
2023-04-27T07:44:44.050Z,55.26
2023-04-27T07:47:10.815Z,55.64
2023-04-27T07:49:38.374Z,55.43
2023-04-27T07:52:05.338Z,55.45
2023-04-27T07:54:32.083Z,55.64
2023-04-27T07:56:58.718Z,56.17
2023-04-27T07:59:29.317Z,55.93
2023-04-27T08:02:07.135Z,56.06
2023-04-27T08:04:42.827Z,54.57
2023-04-27T08:07:10.585Z,54.06
2023-04-27T08:09:37.677Z,54.23
2023-04-27T08:12:04.593Z,53.57
2023-04-27T08:14:31.197Z,52.39
2023-04-27T08:16:57.980Z,52.74
2023-04-27T08:19:24.701Z,52.57
2023-04-27T08:21:51.412Z,52.96
2023-04-27T08:24:18.040Z,53.15
2023-04-27T08:26:44.732Z,53.07
2023-04-27T08:29:23.607Z,52.84
2023-04-27T08:31:55.712Z,52.08
2023-04-27T08:34:23.182Z,52.43
2023-04-27T08:36:49.804Z,51.69
2023-04-27T08:39:18.212Z,51.89
2023-04-27T08:41:45.342Z,50.99
2023-04-27T08:44:12.261Z,51.10
2023-04-27T08:46:39.519Z,51.41
2023-04-27T08:49:10.510Z,51.60
2023-04-27T08:51:37.315Z,50.72
2023-04-27T08:54:04.033Z,50.58
2023-04-27T08:56:30.958Z,50.54
2023-04-27T08:59:00.706Z,49.79
2023-04-27T09:01:27.729Z,49.55
2023-04-27T09:04:00.052Z,48.90
2023-04-27T09:06:34.539Z,48.82
2023-04-27T09:09:02.445Z,48.84
2023-04-27T09:11:31.549Z,48.87
2023-04-27T09:14:00.215Z,48.96
2023-04-27T09:16:29.177Z,48.60
2023-04-27T09:18:57.338Z,49.11
2023-04-27T09:21:28.595Z,49.41
2023-04-27T09:23:56.310Z,49.22
2023-04-27T09:26:28.088Z,48.99
2023-04-27T09:28:58.750Z,48.91
2023-04-27T09:31:36.068Z,48.75
2023-04-27T09:34:04.614Z,48.83
2023-04-27T09:36:32.682Z,48.96
2023-04-27T09:39:04.463Z,48.46
2023-04-27T09:41:35.570Z,48.89
2023-04-27T09:44:03.351Z,48.92
2023-04-27T09:46:33.743Z,48.46
2023-04-27T09:49:04.392Z,47.75
2023-04-27T09:51:31.894Z,48.17
2023-04-27T09:54:01.761Z,47.80
2023-04-27T09:56:37.691Z,46.95
2023-04-27T09:59:26.902Z,45.86
2023-04-27T10:02:07.373Z,45.54
2023-04-27T10:05:21.865Z,45.87
2023-04-27T10:07:49.580Z,46.91
2023-04-27T10:10:20.649Z,46.46
2023-04-27T10:13:02.542Z,46.99
2023-04-27T10:15:30.191Z,46.89
2023-04-27T10:18:04.883Z,47.33
2023-04-27T10:20:33.852Z,48.12
2023-04-27T10:23:00.948Z,47.92
2023-04-27T10:25:38.644Z,48.01
2023-04-27T10:28:08.071Z,48.31
2023-04-27T10:30:39.712Z,48.34
2023-04-27T10:33:09.568Z,48.40
2023-04-27T10:35:41.681Z,48.67
2023-04-27T10:38:26.875Z,48.95
2023-04-27T10:41:02.302Z,48.55
2023-04-27T10:43:31.279Z,48.63
2023-04-27T10:46:12.015Z,48.93
2023-04-27T10:48:43.535Z,49.29
2023-04-27T10:51:15.659Z,49.53
2023-04-27T10:53:42.481Z,48.85
2023-04-27T10:56:09.165Z,49.09
2023-04-27T11:01:08.652Z,47.94
2023-04-27T11:03:36.442Z,46.71
2023-04-27T11:06:05.201Z,47.49
2023-04-27T11:08:34.014Z,47.00
2023-04-27T11:11:01.802Z,47.17
2023-04-27T11:13:28.792Z,47.47
2023-04-27T11:16:00.379Z,46.70
2023-04-27T11:18:31.854Z,46.46
2023-04-27T11:21:10.598Z,46.21
2023-04-27T11:23:38.542Z,45.47
2023-04-27T11:26:18.417Z,45.50
2023-04-27T11:28:57.369Z,45.11
2023-04-27T11:31:24.122Z,45.82
2023-04-27T11:33:51.822Z,46.13
2023-04-27T11:36:23.602Z,45.63
2023-04-27T11:38:50.274Z,45.14
2023-04-27T11:41:17.747Z,45.61
2023-04-27T11:43:51.355Z,46.17
2023-04-27T11:46:22.332Z,45.65
2023-04-27T11:48:49.348Z,45.59
2023-04-27T11:51:16.069Z,45.53
2023-04-27T11:53:48.277Z,45.76
2023-04-27T11:56:14.901Z,46.34
2023-04-27T11:58:42.571Z,45.88
2023-04-27T12:01:10.589Z,46.40
2023-04-27T12:03:37.817Z,46.71
2023-04-27T12:06:21.448Z,47.24
2023-04-27T12:08:51.533Z,47.86
2023-04-27T12:11:18.720Z,48.73
2023-04-27T12:13:45.389Z,48.91
2023-04-27T12:16:12.327Z,49.38
2023-04-27T12:18:38.977Z,49.73
2023-04-27T12:21:08.540Z,49.75
2023-04-27T12:23:35.330Z,49.71
2023-04-27T12:26:02.108Z,50.71
2023-04-27T12:28:28.858Z,50.95
2023-04-27T12:30:55.490Z,51.18
2023-04-27T12:33:22.494Z,51.39
2023-04-27T12:35:49.158Z,52.33
2023-04-27T12:38:15.933Z,51.93
2023-04-27T12:40:42.636Z,51.78
2023-04-27T12:43:09.879Z,51.32
2023-04-27T12:45:36.650Z,51.09
2023-04-27T12:48:04.416Z,50.32
2023-04-27T12:50:32.578Z,50.63
2023-04-27T12:53:00.225Z,50.35
2023-04-27T12:55:33.763Z,50.94
2023-04-27T12:58:01.592Z,50.49
2023-04-27T13:00:29.862Z,50.55
2023-04-27T13:02:57.407Z,50.36
2023-04-27T13:05:24.474Z,50.36
2023-04-27T13:07:51.134Z,50.06
2023-04-27T13:10:17.831Z,49.88
2023-04-27T13:12:44.557Z,50.06
2023-04-27T13:15:11.403Z,50.33
2023-04-27T13:17:38.200Z,50.60
2023-04-27T13:20:06.546Z,50.85
2023-04-27T13:22:33.319Z,50.23
2023-04-27T13:25:00.119Z,50.44
2023-04-27T13:27:28.540Z,50.66
2023-04-27T13:29:55.288Z,49.54
2023-04-27T13:32:22.564Z,49.79
2023-04-27T13:34:49.484Z,49.86
2023-04-27T13:37:16.670Z,49.73
2023-04-27T13:39:43.298Z,49.24
2023-04-27T13:42:10.171Z,49.71
2023-04-27T13:44:36.835Z,49.60
2023-04-27T13:47:03.642Z,49.86
2023-04-27T13:49:30.386Z,50.07
2023-04-27T13:51:57.093Z,50.11
2023-04-27T13:54:23.946Z,51.15
2023-04-27T13:56:50.549Z,52.46
2023-04-27T13:59:17.541Z,53.19
2023-04-27T14:01:44.197Z,53.76
2023-04-27T14:04:11.115Z,54.50
2023-04-27T14:06:37.841Z,54.23
2023-04-27T14:09:04.862Z,54.47
2023-04-27T14:11:35.459Z,54.36
2023-04-27T14:14:08.953Z,54.97
2023-04-27T14:16:35.781Z,55.29
2023-04-27T14:19:02.482Z,55.86
2023-04-27T14:21:29.401Z,56.56
2023-04-27T14:23:56.204Z,56.73
2023-04-27T14:26:22.969Z,57.58
2023-04-27T14:28:49.601Z,57.12
2023-04-27T14:31:16.237Z,57.64
2023-04-27T14:33:42.830Z,57.19
2023-04-27T14:36:09.632Z,57.98
2023-04-27T14:38:36.226Z,57.61
2023-04-27T14:41:05.870Z,57.69
2023-04-27T14:43:32.522Z,57.98
2023-04-27T14:46:08.099Z,57.67
2023-04-27T14:48:46.919Z,57.46
2023-04-27T14:51:14.650Z,57.40
2023-04-27T14:53:41.346Z,57.58
2023-04-27T14:56:08.367Z,57.35
2023-04-27T14:58:35.029Z,56.81
2023-04-27T15:01:02.049Z,56.87
2023-04-27T15:03:28.881Z,56.64
2023-04-27T15:05:55.978Z,56.29
2023-04-27T15:08:22.689Z,56.46
2023-04-27T15:10:49.328Z,55.66
2023-04-27T15:13:16.160Z,55.75
2023-04-27T15:15:46.072Z,55.60
2023-04-27T15:18:12.853Z,55.82
2023-04-27T15:20:39.488Z,55.77
2023-04-27T15:23:06.299Z,56.00
2023-04-27T15:25:32.920Z,56.18
2023-04-27T15:28:01.265Z,56.26
2023-04-27T15:30:27.876Z,55.50
2023-04-27T15:32:54.862Z,55.52
2023-04-27T15:35:21.487Z,56.24
2023-04-27T15:37:48.331Z,56.14
2023-04-27T15:40:15.079Z,56.21
2023-04-27T15:42:41.686Z,56.26
2023-04-27T15:45:09.988Z,56.10
2023-04-27T15:47:36.957Z,56.44
2023-04-27T15:50:03.856Z,56.11
2023-04-27T15:52:30.526Z,56.69
2023-04-27T15:54:57.307Z,57.33
2023-04-27T15:57:23.934Z,57.05
2023-04-27T15:59:50.772Z,57.14
2023-04-27T16:02:17.813Z,57.17
2023-04-27T16:04:44.617Z,57.96
2023-04-27T16:07:11.462Z,58.37
2023-04-27T16:09:38.108Z,58.58
2023-04-27T16:12:05.122Z,58.16
2023-04-27T16:14:31.774Z,58.16
2023-04-27T16:17:02.444Z,57.59
2023-04-27T16:19:29.233Z,57.56
2023-04-27T16:21:55.991Z,57.75
2023-04-27T16:24:22.715Z,57.83
2023-04-27T16:26:49.401Z,57.57
2023-04-27T16:29:16.419Z,57.84
2023-04-27T16:31:44.793Z,58.27
2023-04-27T16:34:11.500Z,58.54
2023-04-27T16:36:38.118Z,58.76
2023-04-27T16:39:05.221Z,58.39
2023-04-27T16:41:32.035Z,58.58
2023-04-27T16:43:58.870Z,59.02
2023-04-27T16:46:25.597Z,59.00
2023-04-27T16:48:52.247Z,59.40
2023-04-27T16:51:19.060Z,59.49
2023-04-27T16:53:46.052Z,59.48
2023-04-27T16:56:14.146Z,59.12
2023-04-27T16:58:41.131Z,59.07
2023-04-27T17:01:07.935Z,58.69
2023-04-27T17:03:36.179Z,59.10
2023-04-27T17:06:03.478Z,59.18
2023-04-27T17:08:30.201Z,59.50
2023-04-27T17:10:56.900Z,59.64
2023-04-27T17:13:23.542Z,60.42
2023-04-27T17:15:50.616Z,60.19
2023-04-27T17:18:17.619Z,60.07
2023-04-27T17:20:44.423Z,60.30
2023-04-27T17:23:11.087Z,59.75
2023-04-27T17:25:37.696Z,60.15
2023-04-27T17:28:04.399Z,60.21
2023-04-27T17:30:31.112Z,60.06
2023-04-27T17:32:57.904Z,59.93
2023-04-27T17:35:24.757Z,60.13
2023-04-27T17:37:52.200Z,60.37
2023-04-27T17:40:20.996Z,60.33
2023-04-27T17:42:47.812Z,60.10
2023-04-27T17:45:14.888Z,60.39
2023-04-27T17:47:41.794Z,60.15
2023-04-27T17:50:09.213Z,59.77
2023-04-27T17:52:35.859Z,59.83
2023-04-27T17:55:02.983Z,59.90
2023-04-27T17:57:29.649Z,60.50
2023-04-27T17:59:56.343Z,60.66
2023-04-27T18:02:23.434Z,60.56
2023-04-27T18:04:50.098Z,60.12
2023-04-27T18:07:18.708Z,60.18
2023-04-27T18:09:45.764Z,60.62
2023-04-27T18:12:12.603Z,60.82
2023-04-27T18:14:39.442Z,60.75
2023-04-27T18:17:06.356Z,60.75
2023-04-27T18:19:33.006Z,60.69
2023-04-27T18:21:59.689Z,61.17
2023-04-27T18:24:26.428Z,61.08
2023-04-27T18:26:53.050Z,60.99
2023-04-27T18:29:19.666Z,60.69
2023-04-27T18:31:46.414Z,60.83
2023-04-27T18:34:14.409Z,61.20
2023-04-27T18:36:41.214Z,60.79
2023-04-27T18:39:07.880Z,61.16
2023-04-27T18:41:34.649Z,61.25
2023-04-27T18:44:05.818Z,61.03
2023-04-27T18:46:32.957Z,61.46
2023-04-27T18:49:01.218Z,61.25
2023-04-27T18:51:29.184Z,61.52
2023-04-27T18:53:56.405Z,61.55
2023-04-27T18:56:23.444Z,61.23
2023-04-27T18:58:50.354Z,61.34
2023-04-27T19:01:24.858Z,61.23
2023-04-27T19:03:52.179Z,61.42
2023-04-27T19:06:21.133Z,61.21
2023-04-27T19:08:48.130Z,61.21
2023-04-27T19:11:14.872Z,61.35
2023-04-27T19:13:43.702Z,61.35
2023-04-27T19:16:11.071Z,61.47
2023-04-27T19:18:38.211Z,61.00
2023-04-27T19:21:04.903Z,61.23
2023-04-27T19:23:31.534Z,61.50
2023-04-27T19:26:09.534Z,61.15
2023-04-27T19:28:39.369Z,61.62
2023-04-27T19:31:07.047Z,61.38
2023-04-27T19:33:33.843Z,61.52
2023-04-27T19:36:00.579Z,61.51
2023-04-27T19:38:27.201Z,61.55
2023-04-27T19:40:53.878Z,61.72
2023-04-27T19:43:20.971Z,61.19
2023-04-27T19:45:49.272Z,61.14
2023-04-27T19:48:16.187Z,61.56
2023-04-27T19:50:43.749Z,61.43
2023-04-27T19:53:11.218Z,61.63
2023-04-27T19:55:38.007Z,61.90
2023-04-27T19:58:04.933Z,61.37
2023-04-27T20:00:33.364Z,61.41
2023-04-27T20:03:00.153Z,61.86
2023-04-27T20:05:27.188Z,61.33
2023-04-27T20:07:53.976Z,61.88
2023-04-27T20:10:21.475Z,61.58
2023-04-27T20:12:56.201Z,61.59
2023-04-27T20:15:24.074Z,61.85
2023-04-27T20:17:50.967Z,62.00
2023-04-27T20:20:18.224Z,62.23
2023-04-27T20:22:45.595Z,62.06
2023-04-27T20:25:14.023Z,62.08
2023-04-27T20:27:41.254Z,61.83
2023-04-27T20:30:08.566Z,62.39
2023-04-27T20:32:36.308Z,62.10
2023-04-27T20:35:04.943Z,62.14
2023-04-27T20:37:32.442Z,62.26
2023-04-27T20:39:59.485Z,62.44
2023-04-27T20:42:26.273Z,62.66
2023-04-27T20:44:55.055Z,62.41
2023-04-27T20:47:22.027Z,62.28
2023-04-27T20:49:48.929Z,62.54
2023-04-27T20:52:15.803Z,62.41
2023-04-27T20:54:42.481Z,62.54
2023-04-27T20:57:13.505Z,62.70
2023-04-27T20:59:41.160Z,62.73
2023-04-27T21:02:08.390Z,63.07
2023-04-27T21:04:35.309Z,62.43
2023-04-27T21:07:02.060Z,62.88
2023-04-27T21:09:28.735Z,62.56
2023-04-27T21:11:55.440Z,63.20
2023-04-27T21:14:22.104Z,62.72
2023-04-27T21:16:48.882Z,62.72
2023-04-27T21:19:16.642Z,62.93
2023-04-27T21:21:43.482Z,63.06
2023-04-27T21:24:10.336Z,62.90
2023-04-27T21:26:37.199Z,62.98
2023-04-27T21:29:05.958Z,63.29
2023-04-27T21:31:33.566Z,63.62
2023-04-27T21:34:00.846Z,63.30
2023-04-27T21:36:27.631Z,63.31
2023-04-27T21:38:54.582Z,63.88
2023-04-27T21:41:21.245Z,63.65
2023-04-27T21:43:47.950Z,64.41
2023-04-27T21:46:14.587Z,63.97
2023-04-27T21:48:41.253Z,64.01
2023-04-27T21:51:07.947Z,64.28
2023-04-27T21:53:34.656Z,63.96
2023-04-27T21:56:01.268Z,63.93
2023-04-27T21:58:28.501Z,63.83
2023-04-27T22:00:55.141Z,63.85
2023-04-27T22:03:22.752Z,63.97
2023-04-27T22:05:50.354Z,64.03
2023-04-27T22:08:17.557Z,64.00
2023-04-27T22:10:44.932Z,64.27
2023-04-27T22:15:41.481Z,64.72
2023-04-27T22:18:08.255Z,64.43
2023-04-27T22:20:35.102Z,64.53
2023-04-27T22:23:01.866Z,64.74
2023-04-27T22:25:28.608Z,64.88
2023-04-27T22:27:55.294Z,65.30
2023-04-27T22:30:21.948Z,65.19
2023-04-27T22:32:48.905Z,65.19
2023-04-27T22:35:25.393Z,65.71
2023-04-27T22:37:53.701Z,65.43
2023-04-27T22:40:20.385Z,65.84
2023-04-27T22:42:47.030Z,65.09
2023-04-27T22:45:13.725Z,65.56
2023-04-27T22:47:41.444Z,65.42
2023-04-27T22:50:09.153Z,66.01
2023-04-27T22:52:37.291Z,65.92
2023-04-27T22:55:04.676Z,65.57
2023-04-27T22:57:31.530Z,65.64
2023-04-27T22:59:58.127Z,65.48
2023-04-27T23:02:24.845Z,65.91
2023-04-27T23:04:51.644Z,65.78
2023-04-27T23:07:18.500Z,65.80
2023-04-27T23:09:45.928Z,65.86
2023-04-27T23:12:12.654Z,65.66
2023-04-27T23:14:41.933Z,65.65
2023-04-27T23:17:10.275Z,65.46
2023-04-27T23:19:36.970Z,65.92
2023-04-27T23:22:03.852Z,65.89
2023-04-27T23:24:30.612Z,65.65
2023-04-27T23:26:57.662Z,65.49
2023-04-27T23:29:25.382Z,66.05
2023-04-27T23:31:52.180Z,65.60
2023-04-27T23:34:18.916Z,65.67
2023-04-27T23:36:45.672Z,65.88
2023-04-27T23:39:12.402Z,65.97
2023-04-27T23:41:39.030Z,65.44
2023-04-27T23:44:05.641Z,65.14
2023-04-27T23:46:32.311Z,65.51
2023-04-27T23:48:58.979Z,65.56
2023-04-27T23:51:25.644Z,65.48
2023-04-27T23:53:52.256Z,65.63
2023-04-27T23:56:19.659Z,65.09
2023-04-27T23:58:46.368Z,65.69
